map of WMAP home
Great Circle Mapper logo
WMAP - Airport
Location
City:  Kluang, Johor, Malaysia
ICAO:WMAP

Details
Type:Airport (Aerodrome, Airfield)
Latitude:202'29"N (2.041394)
Longitude:10318'27"E (103.307394)
Datum:WGS 1984
Elevation:150 ft (46 m)
Variation:0.15E (WMM2015 magnetic declination)
-0.00 annual change
Runways:1
Longest:4101 × 121 ft (1250 × 37 m)

Time
Time Zone:UTC+8
Local Time:

Weather
TAF:WMAP 290500Z 2906/3006 22005KT 7000 FEW020 SCT140 BKN270 PROB30
TEMPO 2906/2910 4000 TSRA FEW015CB SCT018

Related Locations
Nearby:
Farthest:SEMO: 12431 mi / 20006 km
Montalvo [El Carmen], R, EC

Find:

   beyond  
but within

Other Information
Maps:
NOTAMs:
Links:
Sources:

  
flag of Malaysia
flag of Johor
  

Sectional Chart

Flight Planning
at skyvector.com

Satellite Image

Google Maps Satellite view

 

Copyright © 2004-2016 Karl L. Swartz. All rights reserved.
The Great Circle Mapper name and logo are trademarks of the Great Circle Mapper.
All other trademarks mentioned herein belong to their respective owners.
Please see credits for attibutions and further copyright information.

  Follow gcmap on Facebook Follow gcmap on Twitter Follow gcmap on Google+ GCmap on LinkedIn

hCard Microformat

Geo Microformat